sensor_id;sensor_type;location;lat;lon;timestamp;P1;durP1;ratioP1;P2;durP2;ratioP2
29662;SDS011;16578;53.266;7.920;2023-06-14T00:00:39;2.15;;;1.65;;
29662;SDS011;16578;53.266;7.920;2023-06-14T00:03:06;3.50;;;1.83;;
29662;SDS011;16578;53.266;7.920;2023-06-14T00:05:34;2.22;;;1.60;;
29662;SDS011;16578;53.266;7.920;2023-06-14T00:08:05;2.00;;;1.42;;
29662;SDS011;16578;53.266;7.920;2023-06-14T00:10:33;2.30;;;2.08;;
29662;SDS011;16578;53.266;7.920;2023-06-14T00:13:00;2.53;;;1.60;;
29662;SDS011;16578;53.266;7.920;2023-06-14T00:15:26;3.22;;;1.70;;
29662;SDS011;16578;53.266;7.920;2023-06-14T00:17:53;8.95;;;1.98;;
29662;SDS011;16578;53.266;7.920;2023-06-14T00:20:19;1.95;;;1.63;;
29662;SDS011;16578;53.266;7.920;2023-06-14T00:22:45;2.55;;;1.73;;
29662;SDS011;16578;53.266;7.920;2023-06-14T00:25:11;3.55;;;2.00;;
29662;SDS011;16578;53.266;7.920;2023-06-14T00:27:37;2.70;;;1.65;;
29662;SDS011;16578;53.266;7.920;2023-06-14T00:30:03;3.22;;;1.85;;
29662;SDS011;16578;53.266;7.920;2023-06-14T00:32:28;4.28;;;1.98;;
29662;SDS011;16578;53.266;7.920;2023-06-14T00:34:54;3.10;;;2.20;;
29662;SDS011;16578;53.266;7.920;2023-06-14T00:37:20;3.92;;;1.77;;
29662;SDS011;16578;53.266;7.920;2023-06-14T00:39:45;4.55;;;1.90;;
29662;SDS011;16578;53.266;7.920;2023-06-14T00:42:11;3.22;;;2.10;;
29662;SDS011;16578;53.266;7.920;2023-06-14T00:44:47;2.75;;;2.08;;
29662;SDS011;16578;53.266;7.920;2023-06-14T00:47:13;5.82;;;2.13;;
29662;SDS011;16578;53.266;7.920;2023-06-14T00:49:38;4.20;;;2.20;;
29662;SDS011;16578;53.266;7.920;2023-06-14T00:52:04;2.53;;;2.00;;
29662;SDS011;16578;53.266;7.920;2023-06-14T00:54:31;2.42;;;2.13;;
29662;SDS011;16578;53.266;7.920;2023-06-14T00:56:57;3.15;;;2.33;;
29662;SDS011;16578;53.266;7.920;2023-06-14T00:59:22;3.30;;;2.10;;
29662;SDS011;16578;53.266;7.920;2023-06-14T01:01:48;4.05;;;2.22;;
29662;SDS011;16578;53.266;7.920;2023-06-14T01:04:13;5.10;;;2.05;;
29662;SDS011;16578;53.266;7.920;2023-06-14T01:06:45;4.80;;;2.53;;
29662;SDS011;16578;53.266;7.920;2023-06-14T01:09:27;2.80;;;2.13;;
29662;SDS011;16578;53.266;7.920;2023-06-14T01:12:11;2.85;;;2.20;;
29662;SDS011;16578;53.266;7.920;2023-06-14T01:14:42;5.70;;;2.70;;
29662;SDS011;16578;53.266;7.920;2023-06-14T01:17:08;4.10;;;2.47;;
29662;SDS011;16578;53.266;7.920;2023-06-14T01:19:44;4.70;;;2.17;;
29662;SDS011;16578;53.266;7.920;2023-06-14T01:22:11;7.35;;;2.55;;
29662;SDS011;16578;53.266;7.920;2023-06-14T01:24:36;3.03;;;1.92;;
29662;SDS011;16578;53.266;7.920;2023-06-14T01:27:04;3.20;;;2.20;;
29662;SDS011;16578;53.266;7.920;2023-06-14T01:29:30;5.95;;;2.35;;
29662;SDS011;16578;53.266;7.920;2023-06-14T01:32:01;3.90;;;2.40;;
29662;SDS011;16578;53.266;7.920;2023-06-14T01:34:27;3.90;;;2.45;;
29662;SDS011;16578;53.266;7.920;2023-06-14T01:36:53;3.55;;;2.20;;
29662;SDS011;16578;53.266;7.920;2023-06-14T01:39:22;3.20;;;2.40;;
29662;SDS011;16578;53.266;7.920;2023-06-14T01:41:48;3.92;;;2.28;;
29662;SDS011;16578;53.266;7.920;2023-06-14T01:44:15;4.00;;;2.20;;
29662;SDS011;16578;53.266;7.920;2023-06-14T01:46:42;2.53;;;2.13;;
29662;SDS011;16578;53.266;7.920;2023-06-14T01:49:08;4.93;;;2.10;;
29662;SDS011;16578;53.266;7.920;2023-06-14T01:51:35;3.55;;;2.30;;
29662;SDS011;16578;53.266;7.920;2023-06-14T01:54:00;6.45;;;2.38;;
29662;SDS011;16578;53.266;7.920;2023-06-14T01:56:26;5.22;;;2.63;;
29662;SDS011;16578;53.266;7.920;2023-06-14T01:58:52;4.25;;;2.88;;
29662;SDS011;16578;53.266;7.920;2023-06-14T02:01:18;3.92;;;2.80;;
29662;SDS011;16578;53.266;7.920;2023-06-14T02:03:46;8.25;;;2.55;;
29662;SDS011;16578;53.266;7.920;2023-06-14T02:06:13;2.58;;;2.20;;
29662;SDS011;16578;53.266;7.920;2023-06-14T02:08:38;3.95;;;2.45;;
29662;SDS011;16578;53.266;7.920;2023-06-14T02:11:05;3.50;;;2.40;;
29662;SDS011;16578;53.266;7.920;2023-06-14T02:13:30;3.22;;;2.30;;
29662;SDS011;16578;53.266;7.920;2023-06-14T02:15:56;3.25;;;2.60;;
29662;SDS011;16578;53.266;7.920;2023-06-14T02:18:22;4.25;;;2.40;;
29662;SDS011;16578;53.266;7.920;2023-06-14T02:20:48;5.22;;;3.08;;
29662;SDS011;16578;53.266;7.920;2023-06-14T02:23:13;2.90;;;2.33;;
29662;SDS011;16578;53.266;7.920;2023-06-14T02:25:39;4.72;;;2.90;;
29662;SDS011;16578;53.266;7.920;2023-06-14T02:28:05;3.42;;;2.58;;
29662;SDS011;16578;53.266;7.920;2023-06-14T02:30:31;3.70;;;3.08;;
29662;SDS011;16578;53.266;7.920;2023-06-14T02:32:56;5.38;;;2.80;;
29662;SDS011;16578;53.266;7.920;2023-06-14T02:35:22;5.93;;;2.88;;
29662;SDS011;16578;53.266;7.920;2023-06-14T02:37:51;3.28;;;2.40;;
29662;SDS011;16578;53.266;7.920;2023-06-14T02:40:17;7.00;;;2.72;;
29662;SDS011;16578;53.266;7.920;2023-06-14T02:42:43;6.82;;;2.90;;
29662;SDS011;16578;53.266;7.920;2023-06-14T02:45:09;4.72;;;2.85;;
29662;SDS011;16578;53.266;7.920;2023-06-14T02:47:35;4.03;;;3.13;;
29662;SDS011;16578;53.266;7.920;2023-06-14T02:50:01;3.45;;;2.72;;
29662;SDS011;16578;53.266;7.920;2023-06-14T02:52:27;3.00;;;2.58;;
29662;SDS011;16578;53.266;7.920;2023-06-14T02:54:53;3.40;;;2.55;;
29662;SDS011;16578;53.266;7.920;2023-06-14T02:57:19;6.20;;;2.72;;
29662;SDS011;16578;53.266;7.920;2023-06-14T02:59:46;3.55;;;2.90;;
29662;SDS011;16578;53.266;7.920;2023-06-14T03:02:12;4.63;;;2.97;;
29662;SDS011;16578;53.266;7.920;2023-06-14T03:04:37;5.40;;;2.80;;
29662;SDS011;16578;53.266;7.920;2023-06-14T03:07:03;4.45;;;3.08;;
29662;SDS011;16578;53.266;7.920;2023-06-14T03:09:36;5.57;;;2.70;;
29662;SDS011;16578;53.266;7.920;2023-06-14T03:12:02;3.95;;;3.55;;
29662;SDS011;16578;53.266;7.920;2023-06-14T03:14:29;4.45;;;3.45;;
29662;SDS011;16578;53.266;7.920;2023-06-14T03:16:55;4.97;;;3.10;;
29662;SDS011;16578;53.266;7.920;2023-06-14T03:19:21;3.90;;;2.58;;
29662;SDS011;16578;53.266;7.920;2023-06-14T03:21:47;4.45;;;2.78;;
29662;SDS011;16578;53.266;7.920;2023-06-14T03:24:14;5.53;;;3.38;;
29662;SDS011;16578;53.266;7.920;2023-06-14T03:26:42;6.55;;;3.38;;
29662;SDS011;16578;53.266;7.920;2023-06-14T03:29:07;4.78;;;3.63;;
29662;SDS011;16578;53.266;7.920;2023-06-14T03:31:34;7.20;;;2.85;;
29662;SDS011;16578;53.266;7.920;2023-06-14T03:34:00;5.32;;;3.20;;
29662;SDS011;16578;53.266;7.920;2023-06-14T03:36:26;3.58;;;2.92;;
29662;SDS011;16578;53.266;7.920;2023-06-14T03:38:52;5.00;;;3.05;;
29662;SDS011;16578;53.266;7.920;2023-06-14T03:41:19;7.05;;;3.25;;
29662;SDS011;16578;53.266;7.920;2023-06-14T03:43:45;6.43;;;3.33;;
29662;SDS011;16578;53.266;7.920;2023-06-14T03:46:10;4.65;;;3.22;;
29662;SDS011;16578;53.266;7.920;2023-06-14T03:48:36;4.47;;;3.10;;
29662;SDS011;16578;53.266;7.920;2023-06-14T03:51:01;5.03;;;3.35;;
29662;SDS011;16578;53.266;7.920;2023-06-14T03:53:27;3.85;;;3.55;;
29662;SDS011;16578;53.266;7.920;2023-06-14T03:55:54;3.97;;;3.35;;
29662;SDS011;16578;53.266;7.920;2023-06-14T03:58:19;6.15;;;3.63;;
29662;SDS011;16578;53.266;7.920;2023-06-14T04:00:45;5.15;;;3.33;;
29662;SDS011;16578;53.266;7.920;2023-06-14T04:03:11;6.53;;;3.80;;
29662;SDS011;16578;53.266;7.920;2023-06-14T04:05:44;4.28;;;2.97;;
29662;SDS011;16578;53.266;7.920;2023-06-14T04:08:14;5.28;;;3.58;;
29662;SDS011;16578;53.266;7.920;2023-06-14T04:10:40;5.30;;;3.60;;
29662;SDS011;16578;53.266;7.920;2023-06-14T04:13:06;5.55;;;3.88;;
29662;SDS011;16578;53.266;7.920;2023-06-14T04:15:32;4.95;;;3.25;;
29662;SDS011;16578;53.266;7.920;2023-06-14T04:17:58;4.18;;;3.33;;
29662;SDS011;16578;53.266;7.920;2023-06-14T04:20:24;4.82;;;3.30;;
29662;SDS011;16578;53.266;7.920;2023-06-14T04:22:50;6.07;;;3.40;;
29662;SDS011;16578;53.266;7.920;2023-06-14T04:25:16;3.83;;;3.42;;
29662;SDS011;16578;53.266;7.920;2023-06-14T04:27:42;3.35;;;3.03;;
29662;SDS011;16578;53.266;7.920;2023-06-14T04:30:08;3.65;;;3.33;;
29662;SDS011;16578;53.266;7.920;2023-06-14T04:32:34;4.80;;;3.25;;
29662;SDS011;16578;53.266;7.920;2023-06-14T04:35:04;7.18;;;4.78;;
29662;SDS011;16578;53.266;7.920;2023-06-14T04:37:31;5.55;;;3.58;;
29662;SDS011;16578;53.266;7.920;2023-06-14T04:39:58;5.25;;;3.65;;
29662;SDS011;16578;53.266;7.920;2023-06-14T04:42:24;6.60;;;3.88;;
29662;SDS011;16578;53.266;7.920;2023-06-14T04:44:56;5.53;;;3.75;;
29662;SDS011;16578;53.266;7.920;2023-06-14T04:47:22;7.30;;;3.72;;
29662;SDS011;16578;53.266;7.920;2023-06-14T04:49:49;9.40;;;3.73;;
29662;SDS011;16578;53.266;7.920;2023-06-14T04:52:17;6.28;;;3.80;;
29662;SDS011;16578;53.266;7.920;2023-06-14T04:57:11;4.28;;;3.35;;
29662;SDS011;16578;53.266;7.920;2023-06-14T04:59:38;6.88;;;3.63;;
29662;SDS011;16578;53.266;7.920;2023-06-14T05:02:04;6.90;;;3.53;;
29662;SDS011;16578;53.266;7.920;2023-06-14T05:04:30;4.88;;;3.72;;
29662;SDS011;16578;53.266;7.920;2023-06-14T05:06:55;5.75;;;3.90;;
29662;SDS011;16578;53.266;7.920;2023-06-14T05:09:21;4.32;;;3.83;;
29662;SDS011;16578;53.266;7.920;2023-06-14T05:11:47;4.75;;;3.30;;
29662;SDS011;16578;53.266;7.920;2023-06-14T05:14:13;5.82;;;3.97;;
29662;SDS011;16578;53.266;7.920;2023-06-14T05:16:39;5.38;;;3.50;;
29662;SDS011;16578;53.266;7.920;2023-06-14T05:19:05;4.40;;;3.65;;
29662;SDS011;16578;53.266;7.920;2023-06-14T05:21:32;4.53;;;3.25;;
29662;SDS011;16578;53.266;7.920;2023-06-14T05:23:59;4.50;;;3.17;;
29662;SDS011;16578;53.266;7.920;2023-06-14T05:26:25;9.55;;;3.55;;
29662;SDS011;16578;53.266;7.920;2023-06-14T05:28:54;6.65;;;3.40;;
29662;SDS011;16578;53.266;7.920;2023-06-14T05:31:21;4.07;;;3.30;;
29662;SDS011;16578;53.266;7.920;2023-06-14T05:33:48;4.75;;;3.40;;
29662;SDS011;16578;53.266;7.920;2023-06-14T05:36:13;9.48;;;3.60;;
29662;SDS011;16578;53.266;7.920;2023-06-14T05:38:39;5.78;;;3.60;;
29662;SDS011;16578;53.266;7.920;2023-06-14T05:41:05;10.15;;;4.10;;
29662;SDS011;16578;53.266;7.920;2023-06-14T05:43:30;8.00;;;3.53;;
29662;SDS011;16578;53.266;7.920;2023-06-14T05:45:56;4.18;;;3.45;;
29662;SDS011;16578;53.266;7.920;2023-06-14T05:48:22;4.57;;;3.47;;
29662;SDS011;16578;53.266;7.920;2023-06-14T05:50:47;6.75;;;3.70;;
29662;SDS011;16578;53.266;7.920;2023-06-14T05:53:13;5.65;;;3.30;;
29662;SDS011;16578;53.266;7.920;2023-06-14T05:55:38;7.47;;;3.40;;
29662;SDS011;16578;53.266;7.920;2023-06-14T05:58:04;5.55;;;4.13;;
29662;SDS011;16578;53.266;7.920;2023-06-14T06:00:30;6.32;;;3.85;;
29662;SDS011;16578;53.266;7.920;2023-06-14T06:02:55;3.67;;;3.22;;
29662;SDS011;16578;53.266;7.920;2023-06-14T06:05:22;5.43;;;3.80;;
29662;SDS011;16578;53.266;7.920;2023-06-14T06:07:48;4.32;;;3.30;;
29662;SDS011;16578;53.266;7.920;2023-06-14T06:10:14;5.50;;;3.35;;
29662;SDS011;16578;53.266;7.920;2023-06-14T06:12:41;5.97;;;3.00;;
29662;SDS011;16578;53.266;7.920;2023-06-14T06:15:07;9.00;;;3.38;;
29662;SDS011;16578;53.266;7.920;2023-06-14T06:17:33;4.90;;;3.47;;
29662;SDS011;16578;53.266;7.920;2023-06-14T06:19:59;5.85;;;3.40;;
29662;SDS011;16578;53.266;7.920;2023-06-14T06:22:25;3.75;;;2.95;;
29662;SDS011;16578;53.266;7.920;2023-06-14T06:24:50;5.28;;;3.08;;
29662;SDS011;16578;53.266;7.920;2023-06-14T06:27:16;5.78;;;3.35;;
29662;SDS011;16578;53.266;7.920;2023-06-14T06:29:43;5.75;;;3.17;;
29662;SDS011;16578;53.266;7.920;2023-06-14T06:32:09;3.35;;;2.92;;
29662;SDS011;16578;53.266;7.920;2023-06-14T06:34:35;4.80;;;3.33;;
29662;SDS011;16578;53.266;7.920;2023-06-14T06:37:00;4.55;;;3.13;;
29662;SDS011;16578;53.266;7.920;2023-06-14T06:39:26;7.53;;;3.53;;
29662;SDS011;16578;53.266;7.920;2023-06-14T06:41:51;7.15;;;3.42;;
29662;SDS011;16578;53.266;7.920;2023-06-14T06:44:17;4.07;;;2.92;;
29662;SDS011;16578;53.266;7.920;2023-06-14T06:46:43;4.10;;;3.20;;
29662;SDS011;16578;53.266;7.920;2023-06-14T06:49:09;5.78;;;3.28;;
29662;SDS011;16578;53.266;7.920;2023-06-14T06:51:36;4.25;;;3.17;;
29662;SDS011;16578;53.266;7.920;2023-06-14T06:54:02;7.30;;;3.28;;
29662;SDS011;16578;53.266;7.920;2023-06-14T06:56:28;5.00;;;2.90;;
29662;SDS011;16578;53.266;7.920;2023-06-14T06:58:54;6.88;;;3.03;;
29662;SDS011;16578;53.266;7.920;2023-06-14T07:01:19;7.45;;;3.10;;
29662;SDS011;16578;53.266;7.920;2023-06-14T07:03:45;4.93;;;3.17;;
29662;SDS011;16578;53.266;7.920;2023-06-14T07:06:11;4.43;;;3.08;;
29662;SDS011;16578;53.266;7.920;2023-06-14T07:08:37;4.55;;;2.83;;
29662;SDS011;16578;53.266;7.920;2023-06-14T07:11:03;7.70;;;2.90;;
29662;SDS011;16578;53.266;7.920;2023-06-14T07:13:30;4.97;;;2.80;;
29662;SDS011;16578;53.266;7.920;2023-06-14T07:15:59;3.00;;;2.67;;
29662;SDS011;16578;53.266;7.920;2023-06-14T07:18:25;10.25;;;3.00;;
29662;SDS011;16578;53.266;7.920;2023-06-14T07:20:51;5.28;;;2.72;;
29662;SDS011;16578;53.266;7.920;2023-06-14T07:23:18;4.68;;;2.72;;
29662;SDS011;16578;53.266;7.920;2023-06-14T07:25:44;4.78;;;2.78;;
29662;SDS011;16578;53.266;7.920;2023-06-14T07:28:09;4.45;;;2.58;;
29662;SDS011;16578;53.266;7.920;2023-06-14T07:30:35;4.03;;;2.72;;
29662;SDS011;16578;53.266;7.920;2023-06-14T07:33:00;3.92;;;3.03;;
29662;SDS011;16578;53.266;7.920;2023-06-14T07:35:26;5.40;;;2.88;;
29662;SDS011;16578;53.266;7.920;2023-06-14T07:37:51;3.33;;;2.92;;
29662;SDS011;16578;53.266;7.920;2023-06-14T07:40:17;4.50;;;2.72;;
29662;SDS011;16578;53.266;7.920;2023-06-14T07:42:43;3.38;;;2.70;;
29662;SDS011;16578;53.266;7.920;2023-06-14T07:45:09;4.03;;;2.75;;
29662;SDS011;16578;53.266;7.920;2023-06-14T07:47:34;4.78;;;2.83;;
29662;SDS011;16578;53.266;7.920;2023-06-14T07:50:00;8.73;;;3.20;;
29662;SDS011;16578;53.266;7.920;2023-06-14T07:52:26;3.63;;;2.63;;
29662;SDS011;16578;53.266;7.920;2023-06-14T07:54:51;7.30;;;2.60;;
29662;SDS011;16578;53.266;7.920;2023-06-14T07:57:17;3.03;;;2.50;;
29662;SDS011;16578;53.266;7.920;2023-06-14T07:59:45;2.87;;;2.07;;
29662;SDS011;16578;53.266;7.920;2023-06-14T08:02:10;5.93;;;2.70;;
29662;SDS011;16578;53.266;7.920;2023-06-14T08:04:36;4.90;;;2.65;;
29662;SDS011;16578;53.266;7.920;2023-06-14T08:07:02;4.22;;;2.55;;
29662;SDS011;16578;53.266;7.920;2023-06-14T08:09:27;4.47;;;2.53;;
29662;SDS011;16578;53.266;7.920;2023-06-14T08:11:54;3.95;;;2.50;;
29662;SDS011;16578;53.266;7.920;2023-06-14T08:14:20;5.15;;;2.83;;
29662;SDS011;16578;53.266;7.920;2023-06-14T08:16:52;2.95;;;2.33;;
29662;SDS011;16578;53.266;7.920;2023-06-14T08:19:17;3.92;;;2.33;;
29662;SDS011;16578;53.266;7.920;2023-06-14T08:21:43;4.45;;;2.88;;
29662;SDS011;16578;53.266;7.920;2023-06-14T08:24:10;3.33;;;2.22;;
29662;SDS011;16578;53.266;7.920;2023-06-14T08:26:37;4.28;;;2.20;;
29662;SDS011;16578;53.266;7.920;2023-06-14T08:29:04;3.28;;;2.35;;
29662;SDS011;16578;53.266;7.920;2023-06-14T08:31:30;10.25;;;2.70;;
29662;SDS011;16578;53.266;7.920;2023-06-14T08:33:57;4.50;;;2.38;;
29662;SDS011;16578;53.266;7.920;2023-06-14T08:36:22;3.42;;;2.55;;
29662;SDS011;16578;53.266;7.920;2023-06-14T08:38:48;2.58;;;2.38;;
29662;SDS011;16578;53.266;7.920;2023-06-14T08:41:14;3.00;;;2.13;;
29662;SDS011;16578;53.266;7.920;2023-06-14T08:43:47;2.38;;;2.05;;
29662;SDS011;16578;53.266;7.920;2023-06-14T08:46:12;11.50;;;2.10;;
29662;SDS011;16578;53.266;7.920;2023-06-14T08:48:41;3.28;;;2.15;;
29662;SDS011;16578;53.266;7.920;2023-06-14T08:51:08;6.95;;;2.42;;
29662;SDS011;16578;53.266;7.920;2023-06-14T08:53:36;3.08;;;2.22;;
29662;SDS011;16578;53.266;7.920;2023-06-14T08:56:07;4.82;;;1.98;;
29662;SDS011;16578;53.266;7.920;2023-06-14T08:58:44;3.15;;;2.05;;
29662;SDS011;16578;53.266;7.920;2023-06-14T09:01:13;2.08;;;1.73;;
29662;SDS011;16578;53.266;7.920;2023-06-14T09:03:41;4.35;;;2.10;;
29662;SDS011;16578;53.266;7.920;2023-06-14T09:06:07;4.03;;;2.10;;
29662;SDS011;16578;53.266;7.920;2023-06-14T09:08:38;3.05;;;1.92;;
29662;SDS011;16578;53.266;7.920;2023-06-14T09:11:09;3.75;;;1.98;;
29662;SDS011;16578;53.266;7.920;2023-06-14T09:13:39;2.55;;;2.13;;
29662;SDS011;16578;53.266;7.920;2023-06-14T09:16:08;2.30;;;1.98;;
29662;SDS011;16578;53.266;7.920;2023-06-14T09:19:07;2.65;;;2.00;;
29662;SDS011;16578;53.266;7.920;2023-06-14T09:21:26;4.57;;;2.45;;
29662;SDS011;16578;53.266;7.920;2023-06-14T09:23:51;1.77;;;1.55;;
29662;SDS011;16578;53.266;7.920;2023-06-14T09:26:18;4.18;;;1.88;;
29662;SDS011;16578;53.266;7.920;2023-06-14T09:28:48;4.47;;;2.05;;
29662;SDS011;16578;53.266;7.920;2023-06-14T09:31:19;2.08;;;1.58;;
29662;SDS011;16578;53.266;7.920;2023-06-14T09:33:48;2.00;;;1.80;;
29662;SDS011;16578;53.266;7.920;2023-06-14T09:36:15;3.80;;;1.80;;
29662;SDS011;16578;53.266;7.920;2023-06-14T09:38:59;2.47;;;1.92;;
29662;SDS011;16578;53.266;7.920;2023-06-14T09:43:59;2.13;;;1.73;;
29662;SDS011;16578;53.266;7.920;2023-06-14T09:46:27;2.58;;;2.05;;
29662;SDS011;16578;53.266;7.920;2023-06-14T09:48:59;2.28;;;1.80;;
29662;SDS011;16578;53.266;7.920;2023-06-14T09:51:26;2.67;;;2.00;;
29662;SDS011;16578;53.266;7.920;2023-06-14T09:53:53;2.28;;;1.63;;
29662;SDS011;16578;53.266;7.920;2023-06-14T09:56:27;4.32;;;1.88;;
29662;SDS011;16578;53.266;7.920;2023-06-14T09:58:55;2.08;;;1.80;;
29662;SDS011;16578;53.266;7.920;2023-06-14T10:01:26;2.67;;;1.67;;
29662;SDS011;16578;53.266;7.920;2023-06-14T10:03:55;1.88;;;1.63;;
29662;SDS011;16578;53.266;7.920;2023-06-14T10:06:27;3.70;;;1.60;;
29662;SDS011;16578;53.266;7.920;2023-06-14T10:08:55;3.70;;;1.80;;
29662;SDS011;16578;53.266;7.920;2023-06-14T10:11:25;2.00;;;1.77;;
29662;SDS011;16578;53.266;7.920;2023-06-14T10:13:51;5.03;;;1.80;;
29662;SDS011;16578;53.266;7.920;2023-06-14T10:16:20;2.67;;;1.90;;
29662;SDS011;16578;53.266;7.920;2023-06-14T10:18:54;4.05;;;1.80;;
29662;SDS011;16578;53.266;7.920;2023-06-14T10:24:29;4.15;;;1.83;;
29662;SDS011;16578;53.266;7.920;2023-06-14T10:26:57;4.70;;;2.13;;
29662;SDS011;16578;53.266;7.920;2023-06-14T10:29:24;2.58;;;1.80;;
29662;SDS011;16578;53.266;7.920;2023-06-14T10:31:56;2.20;;;1.70;;
29662;SDS011;16578;53.266;7.920;2023-06-14T10:37:02;4.10;;;1.45;;
29662;SDS011;16578;53.266;7.920;2023-06-14T10:39:42;3.50;;;1.95;;
29662;SDS011;16578;53.266;7.920;2023-06-14T10:42:12;2.38;;;1.67;;
29662;SDS011;16578;53.266;7.920;2023-06-14T10:44:42;3.20;;;1.77;;
29662;SDS011;16578;53.266;7.920;2023-06-14T10:47:24;2.00;;;1.80;;
29662;SDS011;16578;53.266;7.920;2023-06-14T10:52:32;3.28;;;1.80;;
29662;SDS011;16578;53.266;7.920;2023-06-14T10:57:50;2.88;;;1.90;;
29662;SDS011;16578;53.266;7.920;2023-06-14T11:00:17;4.85;;;2.08;;
29662;SDS011;16578;53.266;7.920;2023-06-14T11:03:06;3.95;;;1.88;;
29662;SDS011;16578;53.266;7.920;2023-06-14T11:06:01;4.93;;;2.08;;
29662;SDS011;16578;53.266;7.920;2023-06-14T11:11:15;5.55;;;1.70;;
29662;SDS011;16578;53.266;7.920;2023-06-14T11:13:45;4.82;;;1.80;;
29662;SDS011;16578;53.266;7.920;2023-06-14T11:16:12;2.15;;;1.77;;
29662;SDS011;16578;53.266;7.920;2023-06-14T11:18:39;3.28;;;1.73;;
29662;SDS011;16578;53.266;7.920;2023-06-14T11:21:08;3.22;;;1.92;;
29662;SDS011;16578;53.266;7.920;2023-06-14T11:23:34;3.80;;;2.05;;
29662;SDS011;16578;53.266;7.920;2023-06-14T11:26:00;1.75;;;1.63;;
29662;SDS011;16578;53.266;7.920;2023-06-14T11:28:38;2.55;;;1.80;;
29662;SDS011;16578;53.266;7.920;2023-06-14T11:31:05;2.15;;;1.77;;
29662;SDS011;16578;53.266;7.920;2023-06-14T11:33:31;3.20;;;2.10;;
29662;SDS011;16578;53.266;7.920;2023-06-14T11:35:57;2.15;;;1.90;;
29662;SDS011;16578;53.266;7.920;2023-06-14T11:38:23;4.50;;;2.10;;
29662;SDS011;16578;53.266;7.920;2023-06-14T11:40:48;2.58;;;2.30;;
29662;SDS011;16578;53.266;7.920;2023-06-14T11:43:14;2.42;;;2.22;;
29662;SDS011;16578;53.266;7.920;2023-06-14T11:45:39;5.18;;;1.95;;
29662;SDS011;16578;53.266;7.920;2023-06-14T11:48:05;3.60;;;1.80;;
29662;SDS011;16578;53.266;7.920;2023-06-14T11:50:31;2.25;;;2.05;;
29662;SDS011;16578;53.266;7.920;2023-06-14T11:53:01;3.40;;;2.33;;
29662;SDS011;16578;53.266;7.920;2023-06-14T11:55:35;4.90;;;2.17;;
29662;SDS011;16578;53.266;7.920;2023-06-14T11:58:05;3.40;;;2.05;;
29662;SDS011;16578;53.266;7.920;2023-06-14T12:00:31;3.38;;;2.58;;
29662;SDS011;16578;53.266;7.920;2023-06-14T12:02:57;3.78;;;2.20;;
29662;SDS011;16578;53.266;7.920;2023-06-14T12:05:24;6.43;;;2.33;;
29662;SDS011;16578;53.266;7.920;2023-06-14T12:07:57;3.08;;;2.40;;
29662;SDS011;16578;53.266;7.920;2023-06-14T12:10:28;4.43;;;2.33;;
29662;SDS011;16578;53.266;7.920;2023-06-14T12:13:00;2.90;;;2.55;;
29662;SDS011;16578;53.266;7.920;2023-06-14T12:15:28;3.65;;;2.10;;
29662;SDS011;16578;53.266;7.920;2023-06-14T12:17:54;4.88;;;2.60;;
29662;SDS011;16578;53.266;7.920;2023-06-14T12:20:20;4.68;;;2.00;;
29662;SDS011;16578;53.266;7.920;2023-06-14T12:22:56;3.20;;;2.10;;
29662;SDS011;16578;53.266;7.920;2023-06-14T12:25:41;3.25;;;2.30;;
29662;SDS011;16578;53.266;7.920;2023-06-14T12:28:08;3.20;;;2.30;;
29662;SDS011;16578;53.266;7.920;2023-06-14T12:30:37;2.97;;;2.22;;
29662;SDS011;16578;53.266;7.920;2023-06-14T12:33:03;2.67;;;2.05;;
29662;SDS011;16578;53.266;7.920;2023-06-14T12:35:30;2.58;;;2.03;;
29662;SDS011;16578;53.266;7.920;2023-06-14T12:37:56;2.97;;;2.15;;
29662;SDS011;16578;53.266;7.920;2023-06-14T12:40:21;3.30;;;2.38;;
29662;SDS011;16578;53.266;7.920;2023-06-14T12:42:47;3.45;;;2.40;;
29662;SDS011;16578;53.266;7.920;2023-06-14T12:45:13;8.15;;;2.20;;
29662;SDS011;16578;53.266;7.920;2023-06-14T12:47:39;2.88;;;2.10;;
29662;SDS011;16578;53.266;7.920;2023-06-14T12:50:05;3.78;;;2.40;;
29662;SDS011;16578;53.266;7.920;2023-06-14T12:52:31;6.20;;;2.17;;
29662;SDS011;16578;53.266;7.920;2023-06-14T12:55:00;5.45;;;2.28;;
29662;SDS011;16578;53.266;7.920;2023-06-14T12:57:26;3.75;;;2.00;;
29662;SDS011;16578;53.266;7.920;2023-06-14T12:59:52;2.03;;;1.83;;
29662;SDS011;16578;53.266;7.920;2023-06-14T13:02:18;5.32;;;2.17;;
29662;SDS011;16578;53.266;7.920;2023-06-14T13:04:47;4.10;;;2.40;;
29662;SDS011;16578;53.266;7.920;2023-06-14T13:07:12;3.67;;;1.95;;
29662;SDS011;16578;53.266;7.920;2023-06-14T13:09:39;5.38;;;2.60;;
29662;SDS011;16578;53.266;7.920;2023-06-14T13:12:05;4.90;;;2.58;;
29662;SDS011;16578;53.266;7.920;2023-06-14T13:14:31;3.40;;;2.10;;
29662;SDS011;16578;53.266;7.920;2023-06-14T13:16:57;3.72;;;2.20;;
29662;SDS011;16578;53.266;7.920;2023-06-14T13:19:23;3.72;;;2.20;;
29662;SDS011;16578;53.266;7.920;2023-06-14T13:21:48;6.15;;;2.38;;
29662;SDS011;16578;53.266;7.920;2023-06-14T13:24:14;3.25;;;2.50;;
29662;SDS011;16578;53.266;7.920;2023-06-14T13:26:40;2.63;;;2.42;;
29662;SDS011;16578;53.266;7.920;2023-06-14T13:29:05;3.50;;;2.35;;
29662;SDS011;16578;53.266;7.920;2023-06-14T13:31:31;4.53;;;2.17;;
29662;SDS011;16578;53.266;7.920;2023-06-14T13:33:57;2.92;;;2.47;;
29662;SDS011;16578;53.266;7.920;2023-06-14T13:36:22;3.15;;;2.17;;
29662;SDS011;16578;53.266;7.920;2023-06-14T13:38:48;3.72;;;2.50;;
29662;SDS011;16578;53.266;7.920;2023-06-14T13:41:13;4.25;;;1.98;;
29662;SDS011;16578;53.266;7.920;2023-06-14T13:43:39;4.70;;;2.38;;
29662;SDS011;16578;53.266;7.920;2023-06-14T13:46:05;4.80;;;2.70;;
29662;SDS011;16578;53.266;7.920;2023-06-14T13:48:31;4.15;;;2.50;;
29662;SDS011;16578;53.266;7.920;2023-06-14T13:50:59;3.15;;;2.35;;
29662;SDS011;16578;53.266;7.920;2023-06-14T13:53:25;4.45;;;2.42;;
29662;SDS011;16578;53.266;7.920;2023-06-14T13:55:51;5.38;;;2.10;;
29662;SDS011;16578;53.266;7.920;2023-06-14T13:58:17;3.53;;;2.20;;
29662;SDS011;16578;53.266;7.920;2023-06-14T14:00:43;3.15;;;2.20;;
29662;SDS011;16578;53.266;7.920;2023-06-14T14:03:09;5.20;;;2.30;;
29662;SDS011;16578;53.266;7.920;2023-06-14T14:05:35;2.35;;;2.15;;
29662;SDS011;16578;53.266;7.920;2023-06-14T14:08:00;3.53;;;2.05;;
29662;SDS011;16578;53.266;7.920;2023-06-14T14:10:27;5.22;;;2.42;;
29662;SDS011;16578;53.266;7.920;2023-06-14T14:12:53;3.05;;;2.03;;
29662;SDS011;16578;53.266;7.920;2023-06-14T14:15:19;2.65;;;2.22;;
29662;SDS011;16578;53.266;7.920;2023-06-14T14:17:45;4.72;;;2.35;;
29662;SDS011;16578;53.266;7.920;2023-06-14T14:20:12;3.95;;;2.20;;
29662;SDS011;16578;53.266;7.920;2023-06-14T14:22:40;6.97;;;2.40;;
29662;SDS011;16578;53.266;7.920;2023-06-14T14:27:34;5.05;;;2.20;;
29662;SDS011;16578;53.266;7.920;2023-06-14T14:30:00;6.85;;;2.20;;
29662;SDS011;16578;53.266;7.920;2023-06-14T14:32:26;3.38;;;1.88;;
29662;SDS011;16578;53.266;7.920;2023-06-14T14:34:51;4.57;;;2.70;;
29662;SDS011;16578;53.266;7.920;2023-06-14T14:37:17;3.05;;;2.08;;
29662;SDS011;16578;53.266;7.920;2023-06-14T14:39:44;3.78;;;2.25;;
29662;SDS011;16578;53.266;7.920;2023-06-14T14:42:10;3.47;;;2.33;;
29662;SDS011;16578;53.266;7.920;2023-06-14T14:44:37;3.13;;;2.47;;
29662;SDS011;16578;53.266;7.920;2023-06-14T14:47:03;3.50;;;2.40;;
29662;SDS011;16578;53.266;7.920;2023-06-14T14:49:30;4.18;;;2.30;;
29662;SDS011;16578;53.266;7.920;2023-06-14T14:51:56;7.10;;;2.70;;
29662;SDS011;16578;53.266;7.920;2023-06-14T14:54:21;2.35;;;2.15;;
29662;SDS011;16578;53.266;7.920;2023-06-14T14:56:48;3.13;;;2.20;;
29662;SDS011;16578;53.266;7.920;2023-06-14T14:59:13;4.35;;;1.92;;
29662;SDS011;16578;53.266;7.920;2023-06-14T15:01:39;2.70;;;2.10;;
29662;SDS011;16578;53.266;7.920;2023-06-14T15:04:05;2.53;;;2.15;;
29662;SDS011;16578;53.266;7.920;2023-06-14T15:06:30;3.35;;;2.13;;
29662;SDS011;16578;53.266;7.920;2023-06-14T15:08:56;4.18;;;2.10;;